<?xml version="1.0" encoding="UTF-8" standalone="no" ?>
<gpx xmlns="http://www.topografix.com/GPX/1/1" xmlns:xsi="http://www.w3.org/2001/XMLSchema-instance" xsi:schemaLocation="http://www.topografix.com/GPX/1/1 http://www.topografix.com/GPX/1/1/gpx.xsd" version="1.1" creator="VisuGPX - https://www.visugpx.com">
  <metadata>
    <name>Brignac GPS - Autour de Lestrade</name>
    <desc><![CDATA[Randonnée du 22 Mars 2013]]></desc>
  </metadata>
  <trk>
    <name><![CDATA[Brignac GPS - Autour de Lestrade_1]]></name>
    <trkseg>
      <trkpt lat="45.16479" lon="1.34093">
        <ele>189</ele>
        <time>2013-03-22T13:41:58Z</time>
      </trkpt>
      <trkpt lat="45.16465" lon="1.34064">
        <ele>228</ele>
        <time>2013-03-22T13:42:15Z</time>
      </trkpt>
      <trkpt lat="45.16478" lon="1.34055">
        <ele>229</ele>
        <time>2013-03-22T13:42:32Z</time>
      </trkpt>
      <trkpt lat="45.16489" lon="1.34041">
        <ele>232</ele>
        <time>2013-03-22T13:42:48Z</time>
      </trkpt>
      <trkpt lat="45.16507" lon="1.34028">
        <ele>231</ele>
        <time>2013-03-22T13:43:06Z</time>
      </trkpt>
      <trkpt lat="45.16527" lon="1.34032">
        <ele>221</ele>
        <time>2013-03-22T13:43:23Z</time>
      </trkpt>
      <trkpt lat="45.16547" lon="1.34044">
        <ele>213</ele>
        <time>2013-03-22T13:43:39Z</time>
      </trkpt>
      <trkpt lat="45.16561" lon="1.3406">
        <ele>213</ele>
        <time>2013-03-22T13:43:55Z</time>
      </trkpt>
      <trkpt lat="45.1657" lon="1.34082">
        <ele>213</ele>
        <time>2013-03-22T13:44:11Z</time>
      </trkpt>
      <trkpt lat="45.16576" lon="1.34101">
        <ele>209</ele>
        <time>2013-03-22T13:44:31Z</time>
      </trkpt>
      <trkpt lat="45.16575" lon="1.34081">
        <ele>210</ele>
        <time>2013-03-22T13:44:51Z</time>
      </trkpt>
      <trkpt lat="45.16567" lon="1.34052">
        <ele>220</ele>
        <time>2013-03-22T13:45:08Z</time>
      </trkpt>
      <trkpt lat="45.16559" lon="1.34035">
        <ele>220</ele>
        <time>2013-03-22T13:45:26Z</time>
      </trkpt>
      <trkpt lat="45.16546" lon="1.34018">
        <ele>214</ele>
        <time>2013-03-22T13:45:43Z</time>
      </trkpt>
      <trkpt lat="45.16528" lon="1.33995">
        <ele>213</ele>
        <time>2013-03-22T13:46:00Z</time>
      </trkpt>
      <trkpt lat="45.16518" lon="1.33969">
        <ele>213</ele>
        <time>2013-03-22T13:46:16Z</time>
      </trkpt>
      <trkpt lat="45.16511" lon="1.33936">
        <ele>217</ele>
        <time>2013-03-22T13:46:33Z</time>
      </trkpt>
      <trkpt lat="45.16515" lon="1.33909">
        <ele>221</ele>
        <time>2013-03-22T13:46:50Z</time>
      </trkpt>
      <trkpt lat="45.16518" lon="1.33881">
        <ele>215</ele>
        <time>2013-03-22T13:47:07Z</time>
      </trkpt>
      <trkpt lat="45.16509" lon="1.33856">
        <ele>213</ele>
        <time>2013-03-22T13:47:23Z</time>
      </trkpt>
      <trkpt lat="45.16503" lon="1.33822">
        <ele>213</ele>
        <time>2013-03-22T13:47:40Z</time>
      </trkpt>
      <trkpt lat="45.1651" lon="1.33791">
        <ele>216</ele>
        <time>2013-03-22T13:47:58Z</time>
      </trkpt>
      <trkpt lat="45.1652" lon="1.33767">
        <ele>213</ele>
        <time>2013-03-22T13:48:14Z</time>
      </trkpt>
      <trkpt lat="45.16522" lon="1.33743">
        <ele>213</ele>
        <time>2013-03-22T13:48:30Z</time>
      </trkpt>
      <trkpt lat="45.16518" lon="1.33716">
        <ele>213</ele>
        <time>2013-03-22T13:48:46Z</time>
      </trkpt>
      <trkpt lat="45.16514" lon="1.33688">
        <ele>219</ele>
        <time>2013-03-22T13:49:04Z</time>
      </trkpt>
      <trkpt lat="45.16524" lon="1.33665">
        <ele>221</ele>
        <time>2013-03-22T13:49:22Z</time>
      </trkpt>
      <trkpt lat="45.16537" lon="1.33642">
        <ele>220</ele>
        <time>2013-03-22T13:49:39Z</time>
      </trkpt>
      <trkpt lat="45.16549" lon="1.33621">
        <ele>220</ele>
        <time>2013-03-22T13:49:57Z</time>
      </trkpt>
      <trkpt lat="45.1655" lon="1.33597">
        <ele>220</ele>
        <time>2013-03-22T13:50:13Z</time>
      </trkpt>
      <trkpt lat="45.16534" lon="1.33582">
        <ele>219</ele>
        <time>2013-03-22T13:50:31Z</time>
      </trkpt>
      <trkpt lat="45.16515" lon="1.3357">
        <ele>218</ele>
        <time>2013-03-22T13:50:49Z</time>
      </trkpt>
      <trkpt lat="45.16497" lon="1.3356">
        <ele>218</ele>
        <time>2013-03-22T13:51:07Z</time>
      </trkpt>
      <trkpt lat="45.16482" lon="1.33545">
        <ele>218</ele>
        <time>2013-03-22T13:51:23Z</time>
      </trkpt>
      <trkpt lat="45.16468" lon="1.33522">
        <ele>224</ele>
        <time>2013-03-22T13:51:40Z</time>
      </trkpt>
      <trkpt lat="45.1646" lon="1.33494">
        <ele>225</ele>
        <time>2013-03-22T13:51:57Z</time>
      </trkpt>
      <trkpt lat="45.16458" lon="1.33466">
        <ele>227</ele>
        <time>2013-03-22T13:52:16Z</time>
      </trkpt>
      <trkpt lat="45.1646" lon="1.33456">
        <ele>227</ele>
        <time>2013-03-22T13:52:32Z</time>
      </trkpt>
      <trkpt lat="45.16458" lon="1.33429">
        <ele>227</ele>
        <time>2013-03-22T13:52:48Z</time>
      </trkpt>
      <trkpt lat="45.16462" lon="1.33403">
        <ele>234</ele>
        <time>2013-03-22T13:53:05Z</time>
      </trkpt>
      <trkpt lat="45.1647" lon="1.33381">
        <ele>234</ele>
        <time>2013-03-22T13:53:22Z</time>
      </trkpt>
      <trkpt lat="45.16477" lon="1.33355">
        <ele>240</ele>
        <time>2013-03-22T13:53:38Z</time>
      </trkpt>
      <trkpt lat="45.16483" lon="1.33333">
        <ele>240</ele>
        <time>2013-03-22T13:53:55Z</time>
      </trkpt>
      <trkpt lat="45.16476" lon="1.33303">
        <ele>245</ele>
        <time>2013-03-22T13:54:12Z</time>
      </trkpt>
      <trkpt lat="45.16475" lon="1.3328">
        <ele>245</ele>
        <time>2013-03-22T13:54:28Z</time>
      </trkpt>
      <trkpt lat="45.16482" lon="1.33256">
        <ele>246</ele>
        <time>2013-03-22T13:54:45Z</time>
      </trkpt>
      <trkpt lat="45.16493" lon="1.33234">
        <ele>245</ele>
        <time>2013-03-22T13:55:03Z</time>
      </trkpt>
      <trkpt lat="45.16511" lon="1.33216">
        <ele>244</ele>
        <time>2013-03-22T13:55:22Z</time>
      </trkpt>
      <trkpt lat="45.16531" lon="1.33194">
        <ele>239</ele>
        <time>2013-03-22T13:55:41Z</time>
      </trkpt>
      <trkpt lat="45.16547" lon="1.3317">
        <ele>232</ele>
        <time>2013-03-22T13:55:58Z</time>
      </trkpt>
      <trkpt lat="45.16559" lon="1.33146">
        <ele>233</ele>
        <time>2013-03-22T13:56:15Z</time>
      </trkpt>
      <trkpt lat="45.16568" lon="1.33121">
        <ele>235</ele>
        <time>2013-03-22T13:56:31Z</time>
      </trkpt>
      <trkpt lat="45.16585" lon="1.331">
        <ele>235</ele>
        <time>2013-03-22T13:56:49Z</time>
      </trkpt>
      <trkpt lat="45.16599" lon="1.33074">
        <ele>233</ele>
        <time>2013-03-22T13:57:06Z</time>
      </trkpt>
      <trkpt lat="45.16612" lon="1.33051">
        <ele>233</ele>
        <time>2013-03-22T13:57:22Z</time>
      </trkpt>
      <trkpt lat="45.16626" lon="1.3303">
        <ele>233</ele>
        <time>2013-03-22T13:57:38Z</time>
      </trkpt>
      <trkpt lat="45.16647" lon="1.33019">
        <ele>228</ele>
        <time>2013-03-22T13:57:55Z</time>
      </trkpt>
      <trkpt lat="45.16671" lon="1.33017">
        <ele>224</ele>
        <time>2013-03-22T13:58:12Z</time>
      </trkpt>
      <trkpt lat="45.16691" lon="1.33024">
        <ele>221</ele>
        <time>2013-03-22T13:58:28Z</time>
      </trkpt>
      <trkpt lat="45.16711" lon="1.33029">
        <ele>222</ele>
        <time>2013-03-22T13:58:44Z</time>
      </trkpt>
      <trkpt lat="45.16729" lon="1.33035">
        <ele>224</ele>
        <time>2013-03-22T13:59:01Z</time>
      </trkpt>
      <trkpt lat="45.1675" lon="1.33044">
        <ele>224</ele>
        <time>2013-03-22T13:59:18Z</time>
      </trkpt>
      <trkpt lat="45.16772" lon="1.33049">
        <ele>225</ele>
        <time>2013-03-22T13:59:37Z</time>
      </trkpt>
      <trkpt lat="45.16793" lon="1.33054">
        <ele>225</ele>
        <time>2013-03-22T13:59:53Z</time>
      </trkpt>
      <trkpt lat="45.16816" lon="1.33063">
        <ele>225</ele>
        <time>2013-03-22T14:00:09Z</time>
      </trkpt>
      <trkpt lat="45.16833" lon="1.33079">
        <ele>225</ele>
        <time>2013-03-22T14:00:27Z</time>
      </trkpt>
      <trkpt lat="45.16854" lon="1.33099">
        <ele>225</ele>
        <time>2013-03-22T14:00:47Z</time>
      </trkpt>
      <trkpt lat="45.16872" lon="1.33116">
        <ele>225</ele>
        <time>2013-03-22T14:01:04Z</time>
      </trkpt>
      <trkpt lat="45.16885" lon="1.33133">
        <ele>225</ele>
        <time>2013-03-22T14:01:28Z</time>
      </trkpt>
      <trkpt lat="45.16886" lon="1.33134">
        <ele>225</ele>
        <time>2013-03-22T14:02:02Z</time>
      </trkpt>
      <trkpt lat="45.16888" lon="1.33135">
        <ele>225</ele>
        <time>2013-03-22T14:02:33Z</time>
      </trkpt>
      <trkpt lat="45.16899" lon="1.33146">
        <ele>225</ele>
        <time>2013-03-22T14:02:50Z</time>
      </trkpt>
      <trkpt lat="45.16917" lon="1.33159">
        <ele>222</ele>
        <time>2013-03-22T14:03:06Z</time>
      </trkpt>
      <trkpt lat="45.16935" lon="1.33171">
        <ele>218</ele>
        <time>2013-03-22T14:03:23Z</time>
      </trkpt>
      <trkpt lat="45.16955" lon="1.3318">
        <ele>218</ele>
        <time>2013-03-22T14:03:42Z</time>
      </trkpt>
      <trkpt lat="45.1698" lon="1.33198">
        <ele>217</ele>
        <time>2013-03-22T14:04:01Z</time>
      </trkpt>
      <trkpt lat="45.16999" lon="1.33219">
        <ele>217</ele>
        <time>2013-03-22T14:04:20Z</time>
      </trkpt>
      <trkpt lat="45.17017" lon="1.33243">
        <ele>217</ele>
        <time>2013-03-22T14:04:38Z</time>
      </trkpt>
      <trkpt lat="45.17028" lon="1.33265">
        <ele>217</ele>
        <time>2013-03-22T14:04:54Z</time>
      </trkpt>
      <trkpt lat="45.17034" lon="1.33295">
        <ele>217</ele>
        <time>2013-03-22T14:05:13Z</time>
      </trkpt>
      <trkpt lat="45.17041" lon="1.3332">
        <ele>217</ele>
        <time>2013-03-22T14:05:29Z</time>
      </trkpt>
      <trkpt lat="45.17048" lon="1.33345">
        <ele>215</ele>
        <time>2013-03-22T14:05:45Z</time>
      </trkpt>
      <trkpt lat="45.17059" lon="1.33365">
        <ele>213</ele>
        <time>2013-03-22T14:06:01Z</time>
      </trkpt>
      <trkpt lat="45.17075" lon="1.33377">
        <ele>209</ele>
        <time>2013-03-22T14:06:20Z</time>
      </trkpt>
      <trkpt lat="45.17094" lon="1.33388">
        <ele>207</ele>
        <time>2013-03-22T14:06:39Z</time>
      </trkpt>
      <trkpt lat="45.17114" lon="1.33405">
        <ele>205</ele>
        <time>2013-03-22T14:06:59Z</time>
      </trkpt>
      <trkpt lat="45.17121" lon="1.33416">
        <ele>204</ele>
        <time>2013-03-22T14:07:19Z</time>
      </trkpt>
      <trkpt lat="45.1713" lon="1.33439">
        <ele>201</ele>
        <time>2013-03-22T14:07:37Z</time>
      </trkpt>
      <trkpt lat="45.17149" lon="1.33457">
        <ele>199</ele>
        <time>2013-03-22T14:07:57Z</time>
      </trkpt>
      <trkpt lat="45.17138" lon="1.33451">
        <ele>198</ele>
        <time>2013-03-22T14:08:16Z</time>
      </trkpt>
      <trkpt lat="45.1714" lon="1.33451">
        <ele>198</ele>
        <time>2013-03-22T14:08:33Z</time>
      </trkpt>
      <trkpt lat="45.17154" lon="1.33463">
        <ele>197</ele>
        <time>2013-03-22T14:08:49Z</time>
      </trkpt>
      <trkpt lat="45.17167" lon="1.33477">
        <ele>194</ele>
        <time>2013-03-22T14:09:06Z</time>
      </trkpt>
      <trkpt lat="45.17183" lon="1.335">
        <ele>191</ele>
        <time>2013-03-22T14:09:23Z</time>
      </trkpt>
      <trkpt lat="45.17195" lon="1.3352">
        <ele>189</ele>
        <time>2013-03-22T14:09:42Z</time>
      </trkpt>
      <trkpt lat="45.17209" lon="1.33544">
        <ele>188</ele>
        <time>2013-03-22T14:09:58Z</time>
      </trkpt>
      <trkpt lat="45.17217" lon="1.33565">
        <ele>185</ele>
        <time>2013-03-22T14:10:15Z</time>
      </trkpt>
      <trkpt lat="45.17228" lon="1.33591">
        <ele>184</ele>
        <time>2013-03-22T14:10:33Z</time>
      </trkpt>
      <trkpt lat="45.17238" lon="1.33614">
        <ele>183</ele>
        <time>2013-03-22T14:10:49Z</time>
      </trkpt>
      <trkpt lat="45.17249" lon="1.33636">
        <ele>181</ele>
        <time>2013-03-22T14:11:06Z</time>
      </trkpt>
      <trkpt lat="45.17266" lon="1.33633">
        <ele>180</ele>
        <time>2013-03-22T14:11:22Z</time>
      </trkpt>
      <trkpt lat="45.17272" lon="1.3361">
        <ele>179</ele>
        <time>2013-03-22T14:11:38Z</time>
      </trkpt>
      <trkpt lat="45.17274" lon="1.33582">
        <ele>178</ele>
        <time>2013-03-22T14:11:55Z</time>
      </trkpt>
      <trkpt lat="45.17278" lon="1.33556">
        <ele>178</ele>
        <time>2013-03-22T14:12:11Z</time>
      </trkpt>
      <trkpt lat="45.17285" lon="1.3353">
        <ele>177</ele>
        <time>2013-03-22T14:12:28Z</time>
      </trkpt>
      <trkpt lat="45.17294" lon="1.33506">
        <ele>176</ele>
        <time>2013-03-22T14:12:44Z</time>
      </trkpt>
      <trkpt lat="45.17299" lon="1.3348">
        <ele>175</ele>
        <time>2013-03-22T14:13:01Z</time>
      </trkpt>
      <trkpt lat="45.17302" lon="1.33452">
        <ele>172</ele>
        <time>2013-03-22T14:13:17Z</time>
      </trkpt>
      <trkpt lat="45.173" lon="1.33421">
        <ele>170</ele>
        <time>2013-03-22T14:13:36Z</time>
      </trkpt>
      <trkpt lat="45.17299" lon="1.33387">
        <ele>174</ele>
        <time>2013-03-22T14:13:53Z</time>
      </trkpt>
      <trkpt lat="45.17299" lon="1.3336">
        <ele>174</ele>
        <time>2013-03-22T14:14:09Z</time>
      </trkpt>
      <trkpt lat="45.173" lon="1.33333">
        <ele>174</ele>
        <time>2013-03-22T14:14:27Z</time>
      </trkpt>
      <trkpt lat="45.17293" lon="1.33301">
        <ele>177</ele>
        <time>2013-03-22T14:14:44Z</time>
      </trkpt>
      <trkpt lat="45.17299" lon="1.33272">
        <ele>177</ele>
        <time>2013-03-22T14:15:01Z</time>
      </trkpt>
      <trkpt lat="45.17318" lon="1.33257">
        <ele>177</ele>
        <time>2013-03-22T14:15:18Z</time>
      </trkpt>
      <trkpt lat="45.17339" lon="1.33262">
        <ele>177</ele>
        <time>2013-03-22T14:15:37Z</time>
      </trkpt>
      <trkpt lat="45.17355" lon="1.3327">
        <ele>177</ele>
        <time>2013-03-22T14:15:53Z</time>
      </trkpt>
      <trkpt lat="45.1737" lon="1.33277">
        <ele>177</ele>
        <time>2013-03-22T14:16:09Z</time>
      </trkpt>
      <trkpt lat="45.17386" lon="1.33288">
        <ele>177</ele>
        <time>2013-03-22T14:16:27Z</time>
      </trkpt>
      <trkpt lat="45.174" lon="1.33302">
        <ele>177</ele>
        <time>2013-03-22T14:16:44Z</time>
      </trkpt>
      <trkpt lat="45.17416" lon="1.33315">
        <ele>179</ele>
        <time>2013-03-22T14:17:04Z</time>
      </trkpt>
      <trkpt lat="45.17434" lon="1.33319">
        <ele>181</ele>
        <time>2013-03-22T14:17:22Z</time>
      </trkpt>
      <trkpt lat="45.1745" lon="1.33316">
        <ele>181</ele>
        <time>2013-03-22T14:17:40Z</time>
      </trkpt>
      <trkpt lat="45.17468" lon="1.33324">
        <ele>181</ele>
        <time>2013-03-22T14:17:57Z</time>
      </trkpt>
      <trkpt lat="45.17478" lon="1.33335">
        <ele>182</ele>
        <time>2013-03-22T14:18:14Z</time>
      </trkpt>
      <trkpt lat="45.17486" lon="1.33356">
        <ele>183</ele>
        <time>2013-03-22T14:18:30Z</time>
      </trkpt>
      <trkpt lat="45.1749" lon="1.33381">
        <ele>183</ele>
        <time>2013-03-22T14:18:47Z</time>
      </trkpt>
      <trkpt lat="45.17495" lon="1.33405">
        <ele>183</ele>
        <time>2013-03-22T14:19:03Z</time>
      </trkpt>
      <trkpt lat="45.17503" lon="1.33432">
        <ele>183</ele>
        <time>2013-03-22T14:19:20Z</time>
      </trkpt>
      <trkpt lat="45.17503" lon="1.33448">
        <ele>183</ele>
        <time>2013-03-22T14:19:37Z</time>
      </trkpt>
      <trkpt lat="45.17509" lon="1.33476">
        <ele>183</ele>
        <time>2013-03-22T14:19:54Z</time>
      </trkpt>
      <trkpt lat="45.17511" lon="1.33504">
        <ele>183</ele>
        <time>2013-03-22T14:20:11Z</time>
      </trkpt>
      <trkpt lat="45.1751" lon="1.3352">
        <ele>183</ele>
        <time>2013-03-22T14:20:30Z</time>
      </trkpt>
      <trkpt lat="45.17507" lon="1.33545">
        <ele>180</ele>
        <time>2013-03-22T14:20:47Z</time>
      </trkpt>
      <trkpt lat="45.17506" lon="1.33568">
        <ele>175</ele>
        <time>2013-03-22T14:21:04Z</time>
      </trkpt>
      <trkpt lat="45.17507" lon="1.33572">
        <ele>175</ele>
        <time>2013-03-22T14:21:32Z</time>
      </trkpt>
      <trkpt lat="45.17504" lon="1.33578">
        <ele>175</ele>
        <time>2013-03-22T14:21:51Z</time>
      </trkpt>
      <trkpt lat="45.17508" lon="1.33603">
        <ele>172</ele>
        <time>2013-03-22T14:22:10Z</time>
      </trkpt>
      <trkpt lat="45.17512" lon="1.33627">
        <ele>164</ele>
        <time>2013-03-22T14:22:27Z</time>
      </trkpt>
      <trkpt lat="45.17517" lon="1.33648">
        <ele>161</ele>
        <time>2013-03-22T14:22:44Z</time>
      </trkpt>
      <trkpt lat="45.17525" lon="1.3367">
        <ele>159</ele>
        <time>2013-03-22T14:23:01Z</time>
      </trkpt>
      <trkpt lat="45.17533" lon="1.33689">
        <ele>156</ele>
        <time>2013-03-22T14:23:17Z</time>
      </trkpt>
      <trkpt lat="45.1754" lon="1.33712">
        <ele>153</ele>
        <time>2013-03-22T14:23:36Z</time>
      </trkpt>
      <trkpt lat="45.17547" lon="1.33731">
        <ele>149</ele>
        <time>2013-03-22T14:23:53Z</time>
      </trkpt>
      <trkpt lat="45.17556" lon="1.33754">
        <ele>147</ele>
        <time>2013-03-22T14:24:11Z</time>
      </trkpt>
      <trkpt lat="45.17556" lon="1.33776">
        <ele>142</ele>
        <time>2013-03-22T14:24:30Z</time>
      </trkpt>
      <trkpt lat="45.17549" lon="1.338">
        <ele>132</ele>
        <time>2013-03-22T14:24:47Z</time>
      </trkpt>
      <trkpt lat="45.17539" lon="1.33824">
        <ele>130</ele>
        <time>2013-03-22T14:25:07Z</time>
      </trkpt>
      <trkpt lat="45.17525" lon="1.33855">
        <ele>130</ele>
        <time>2013-03-22T14:25:24Z</time>
      </trkpt>
      <trkpt lat="45.17506" lon="1.33864">
        <ele>134</ele>
        <time>2013-03-22T14:25:44Z</time>
      </trkpt>
      <trkpt lat="45.1749" lon="1.33874">
        <ele>137</ele>
        <time>2013-03-22T14:26:01Z</time>
      </trkpt>
      <trkpt lat="45.17487" lon="1.33901">
        <ele>137</ele>
        <time>2013-03-22T14:26:20Z</time>
      </trkpt>
      <trkpt lat="45.17486" lon="1.33927">
        <ele>135</ele>
        <time>2013-03-22T14:26:38Z</time>
      </trkpt>
      <trkpt lat="45.17479" lon="1.33953">
        <ele>133</ele>
        <time>2013-03-22T14:26:54Z</time>
      </trkpt>
      <trkpt lat="45.17464" lon="1.3397">
        <ele>129</ele>
        <time>2013-03-22T14:27:12Z</time>
      </trkpt>
      <trkpt lat="45.17454" lon="1.33991">
        <ele>126</ele>
        <time>2013-03-22T14:27:29Z</time>
      </trkpt>
      <trkpt lat="45.1744" lon="1.34014">
        <ele>125</ele>
        <time>2013-03-22T14:27:48Z</time>
      </trkpt>
      <trkpt lat="45.17427" lon="1.34038">
        <ele>125</ele>
        <time>2013-03-22T14:28:05Z</time>
      </trkpt>
      <trkpt lat="45.17418" lon="1.34059">
        <ele>125</ele>
        <time>2013-03-22T14:28:23Z</time>
      </trkpt>
      <trkpt lat="45.17417" lon="1.3408">
        <ele>121</ele>
        <time>2013-03-22T14:28:41Z</time>
      </trkpt>
      <trkpt lat="45.17402" lon="1.341">
        <ele>121</ele>
        <time>2013-03-22T14:28:58Z</time>
      </trkpt>
      <trkpt lat="45.17389" lon="1.34114">
        <ele>127</ele>
        <time>2013-03-22T14:29:16Z</time>
      </trkpt>
      <trkpt lat="45.17372" lon="1.34124">
        <ele>136</ele>
        <time>2013-03-22T14:29:32Z</time>
      </trkpt>
      <trkpt lat="45.17356" lon="1.34136">
        <ele>137</ele>
        <time>2013-03-22T14:29:50Z</time>
      </trkpt>
      <trkpt lat="45.17337" lon="1.34133">
        <ele>139</ele>
        <time>2013-03-22T14:30:07Z</time>
      </trkpt>
      <trkpt lat="45.17322" lon="1.34129">
        <ele>142</ele>
        <time>2013-03-22T14:30:26Z</time>
      </trkpt>
      <trkpt lat="45.17305" lon="1.34122">
        <ele>145</ele>
        <time>2013-03-22T14:30:42Z</time>
      </trkpt>
      <trkpt lat="45.17288" lon="1.34114">
        <ele>145</ele>
        <time>2013-03-22T14:31:00Z</time>
      </trkpt>
      <trkpt lat="45.17272" lon="1.34107">
        <ele>145</ele>
        <time>2013-03-22T14:31:16Z</time>
      </trkpt>
      <trkpt lat="45.17259" lon="1.34102">
        <ele>140</ele>
        <time>2013-03-22T14:31:32Z</time>
      </trkpt>
      <trkpt lat="45.17245" lon="1.34102">
        <ele>136</ele>
        <time>2013-03-22T14:31:51Z</time>
      </trkpt>
      <trkpt lat="45.17259" lon="1.34107">
        <ele>133</ele>
        <time>2013-03-22T14:32:08Z</time>
      </trkpt>
      <trkpt lat="45.17273" lon="1.34115">
        <ele>129</ele>
        <time>2013-03-22T14:32:26Z</time>
      </trkpt>
      <trkpt lat="45.1727" lon="1.34119">
        <ele>132</ele>
        <time>2013-03-22T14:32:45Z</time>
      </trkpt>
      <trkpt lat="45.1727" lon="1.34126">
        <ele>127</ele>
        <time>2013-03-22T14:33:03Z</time>
      </trkpt>
      <trkpt lat="45.17277" lon="1.34143">
        <ele>126</ele>
        <time>2013-03-22T14:33:23Z</time>
      </trkpt>
      <trkpt lat="45.17284" lon="1.34161">
        <ele>126</ele>
        <time>2013-03-22T14:33:42Z</time>
      </trkpt>
      <trkpt lat="45.17284" lon="1.34179">
        <ele>124</ele>
        <time>2013-03-22T14:34:00Z</time>
      </trkpt>
      <trkpt lat="45.17284" lon="1.34194">
        <ele>124</ele>
        <time>2013-03-22T14:34:17Z</time>
      </trkpt>
      <trkpt lat="45.17283" lon="1.34211">
        <ele>124</ele>
        <time>2013-03-22T14:34:33Z</time>
      </trkpt>
      <trkpt lat="45.17283" lon="1.34229">
        <ele>122</ele>
        <time>2013-03-22T14:34:50Z</time>
      </trkpt>
      <trkpt lat="45.17282" lon="1.3425">
        <ele>122</ele>
        <time>2013-03-22T14:35:08Z</time>
      </trkpt>
      <trkpt lat="45.17275" lon="1.34269">
        <ele>126</ele>
        <time>2013-03-22T14:35:26Z</time>
      </trkpt>
      <trkpt lat="45.17269" lon="1.3429">
        <ele>131</ele>
        <time>2013-03-22T14:35:44Z</time>
      </trkpt>
      <trkpt lat="45.17263" lon="1.34307">
        <ele>133</ele>
        <time>2013-03-22T14:36:06Z</time>
      </trkpt>
      <trkpt lat="45.17269" lon="1.34306">
        <ele>139</ele>
        <time>2013-03-22T14:36:27Z</time>
      </trkpt>
      <trkpt lat="45.17269" lon="1.34308">
        <ele>139</ele>
        <time>2013-03-22T14:36:48Z</time>
      </trkpt>
      <trkpt lat="45.1726" lon="1.34313">
        <ele>140</ele>
        <time>2013-03-22T14:37:06Z</time>
      </trkpt>
      <trkpt lat="45.17251" lon="1.34335">
        <ele>140</ele>
        <time>2013-03-22T14:37:24Z</time>
      </trkpt>
      <trkpt lat="45.1724" lon="1.34352">
        <ele>133</ele>
        <time>2013-03-22T14:37:41Z</time>
      </trkpt>
      <trkpt lat="45.17229" lon="1.34377">
        <ele>133</ele>
        <time>2013-03-22T14:37:57Z</time>
      </trkpt>
      <trkpt lat="45.17217" lon="1.34396">
        <ele>132</ele>
        <time>2013-03-22T14:38:15Z</time>
      </trkpt>
      <trkpt lat="45.17206" lon="1.34421">
        <ele>126</ele>
        <time>2013-03-22T14:38:32Z</time>
      </trkpt>
      <trkpt lat="45.17197" lon="1.34443">
        <ele>123</ele>
        <time>2013-03-22T14:38:49Z</time>
      </trkpt>
      <trkpt lat="45.17184" lon="1.34464">
        <ele>123</ele>
        <time>2013-03-22T14:39:05Z</time>
      </trkpt>
      <trkpt lat="45.17176" lon="1.34491">
        <ele>123</ele>
        <time>2013-03-22T14:39:23Z</time>
      </trkpt>
      <trkpt lat="45.17164" lon="1.34517">
        <ele>127</ele>
        <time>2013-03-22T14:39:42Z</time>
      </trkpt>
      <trkpt lat="45.17152" lon="1.34542">
        <ele>129</ele>
        <time>2013-03-22T14:40:00Z</time>
      </trkpt>
      <trkpt lat="45.17147" lon="1.34569">
        <ele>130</ele>
        <time>2013-03-22T14:40:20Z</time>
      </trkpt>
      <trkpt lat="45.17141" lon="1.34595">
        <ele>130</ele>
        <time>2013-03-22T14:40:38Z</time>
      </trkpt>
      <trkpt lat="45.17134" lon="1.34619">
        <ele>129</ele>
        <time>2013-03-22T14:40:57Z</time>
      </trkpt>
      <trkpt lat="45.17131" lon="1.34633">
        <ele>131</ele>
        <time>2013-03-22T14:41:16Z</time>
      </trkpt>
      <trkpt lat="45.17125" lon="1.34655">
        <ele>131</ele>
        <time>2013-03-22T14:41:34Z</time>
      </trkpt>
      <trkpt lat="45.17119" lon="1.34679">
        <ele>131</ele>
        <time>2013-03-22T14:41:53Z</time>
      </trkpt>
      <trkpt lat="45.17113" lon="1.34703">
        <ele>131</ele>
        <time>2013-03-22T14:42:10Z</time>
      </trkpt>
      <trkpt lat="45.17105" lon="1.34729">
        <ele>131</ele>
        <time>2013-03-22T14:42:29Z</time>
      </trkpt>
      <trkpt lat="45.17098" lon="1.34757">
        <ele>131</ele>
        <time>2013-03-22T14:42:47Z</time>
      </trkpt>
      <trkpt lat="45.17091" lon="1.34783">
        <ele>130</ele>
        <time>2013-03-22T14:43:03Z</time>
      </trkpt>
      <trkpt lat="45.17087" lon="1.34801">
        <ele>130</ele>
        <time>2013-03-22T14:43:20Z</time>
      </trkpt>
      <trkpt lat="45.17086" lon="1.34829">
        <ele>127</ele>
        <time>2013-03-22T14:43:38Z</time>
      </trkpt>
      <trkpt lat="45.17085" lon="1.34852">
        <ele>126</ele>
        <time>2013-03-22T14:43:54Z</time>
      </trkpt>
      <trkpt lat="45.1708" lon="1.34881">
        <ele>125</ele>
        <time>2013-03-22T14:44:12Z</time>
      </trkpt>
      <trkpt lat="45.17075" lon="1.34909">
        <ele>125</ele>
        <time>2013-03-22T14:44:28Z</time>
      </trkpt>
      <trkpt lat="45.17073" lon="1.34932">
        <ele>125</ele>
        <time>2013-03-22T14:44:44Z</time>
      </trkpt>
      <trkpt lat="45.17066" lon="1.34955">
        <ele>125</ele>
        <time>2013-03-22T14:45:01Z</time>
      </trkpt>
      <trkpt lat="45.17058" lon="1.3498">
        <ele>125</ele>
        <time>2013-03-22T14:45:18Z</time>
      </trkpt>
      <trkpt lat="45.17047" lon="1.35006">
        <ele>129</ele>
        <time>2013-03-22T14:45:35Z</time>
      </trkpt>
      <trkpt lat="45.17038" lon="1.3503">
        <ele>130</ele>
        <time>2013-03-22T14:45:53Z</time>
      </trkpt>
      <trkpt lat="45.17029" lon="1.35045">
        <ele>130</ele>
        <time>2013-03-22T14:46:10Z</time>
      </trkpt>
      <trkpt lat="45.17024" lon="1.35043">
        <ele>134</ele>
        <time>2013-03-22T14:46:26Z</time>
      </trkpt>
      <trkpt lat="45.17027" lon="1.35034">
        <ele>134</ele>
        <time>2013-03-22T14:46:45Z</time>
      </trkpt>
      <trkpt lat="45.17027" lon="1.35031">
        <ele>137</ele>
        <time>2013-03-22T14:47:05Z</time>
      </trkpt>
      <trkpt lat="45.17018" lon="1.35038">
        <ele>137</ele>
        <time>2013-03-22T14:47:21Z</time>
      </trkpt>
      <trkpt lat="45.17002" lon="1.35047">
        <ele>137</ele>
        <time>2013-03-22T14:47:38Z</time>
      </trkpt>
      <trkpt lat="45.16999" lon="1.35065">
        <ele>134</ele>
        <time>2013-03-22T14:47:55Z</time>
      </trkpt>
      <trkpt lat="45.16997" lon="1.35091">
        <ele>127</ele>
        <time>2013-03-22T14:48:13Z</time>
      </trkpt>
      <trkpt lat="45.17" lon="1.35118">
        <ele>127</ele>
        <time>2013-03-22T14:48:30Z</time>
      </trkpt>
      <trkpt lat="45.17006" lon="1.35143">
        <ele>128</ele>
        <time>2013-03-22T14:48:47Z</time>
      </trkpt>
      <trkpt lat="45.17007" lon="1.35172">
        <ele>128</ele>
        <time>2013-03-22T14:49:05Z</time>
      </trkpt>
      <trkpt lat="45.17005" lon="1.35198">
        <ele>125</ele>
        <time>2013-03-22T14:49:21Z</time>
      </trkpt>
      <trkpt lat="45.16997" lon="1.35223">
        <ele>125</ele>
        <time>2013-03-22T14:49:41Z</time>
      </trkpt>
      <trkpt lat="45.16992" lon="1.35255">
        <ele>125</ele>
        <time>2013-03-22T14:49:59Z</time>
      </trkpt>
      <trkpt lat="45.16994" lon="1.35285">
        <ele>125</ele>
        <time>2013-03-22T14:50:17Z</time>
      </trkpt>
      <trkpt lat="45.16984" lon="1.35315">
        <ele>125</ele>
        <time>2013-03-22T14:50:34Z</time>
      </trkpt>
      <trkpt lat="45.16975" lon="1.35343">
        <ele>124</ele>
        <time>2013-03-22T14:50:52Z</time>
      </trkpt>
      <trkpt lat="45.16969" lon="1.35365">
        <ele>124</ele>
        <time>2013-03-22T14:51:09Z</time>
      </trkpt>
      <trkpt lat="45.16959" lon="1.35396">
        <ele>124</ele>
        <time>2013-03-22T14:51:26Z</time>
      </trkpt>
      <trkpt lat="45.16947" lon="1.35414">
        <ele>124</ele>
        <time>2013-03-22T14:51:43Z</time>
      </trkpt>
      <trkpt lat="45.16933" lon="1.35433">
        <ele>124</ele>
        <time>2013-03-22T14:51:59Z</time>
      </trkpt>
      <trkpt lat="45.1692" lon="1.3545">
        <ele>124</ele>
        <time>2013-03-22T14:52:16Z</time>
      </trkpt>
      <trkpt lat="45.16906" lon="1.35468">
        <ele>124</ele>
        <time>2013-03-22T14:52:33Z</time>
      </trkpt>
      <trkpt lat="45.16897" lon="1.35479">
        <ele>126</ele>
        <time>2013-03-22T14:53:04Z</time>
      </trkpt>
      <trkpt lat="45.16894" lon="1.35491">
        <ele>127</ele>
        <time>2013-03-22T14:53:21Z</time>
      </trkpt>
      <trkpt lat="45.16897" lon="1.3551">
        <ele>127</ele>
        <time>2013-03-22T14:53:38Z</time>
      </trkpt>
      <trkpt lat="45.16905" lon="1.35531">
        <ele>127</ele>
        <time>2013-03-22T14:53:55Z</time>
      </trkpt>
      <trkpt lat="45.16911" lon="1.35551">
        <ele>125</ele>
        <time>2013-03-22T14:54:12Z</time>
      </trkpt>
      <trkpt lat="45.16909" lon="1.35566">
        <ele>123</ele>
        <time>2013-03-22T14:54:29Z</time>
      </trkpt>
      <trkpt lat="45.16897" lon="1.35568">
        <ele>123</ele>
        <time>2013-03-22T14:54:47Z</time>
      </trkpt>
      <trkpt lat="45.16882" lon="1.35567">
        <ele>123</ele>
        <time>2013-03-22T14:55:06Z</time>
      </trkpt>
      <trkpt lat="45.16866" lon="1.35562">
        <ele>123</ele>
        <time>2013-03-22T14:55:23Z</time>
      </trkpt>
      <trkpt lat="45.16846" lon="1.3556">
        <ele>123</ele>
        <time>2013-03-22T14:55:42Z</time>
      </trkpt>
      <trkpt lat="45.16825" lon="1.35557">
        <ele>123</ele>
        <time>2013-03-22T14:55:59Z</time>
      </trkpt>
      <trkpt lat="45.1681" lon="1.35554">
        <ele>123</ele>
        <time>2013-03-22T14:56:15Z</time>
      </trkpt>
      <trkpt lat="45.16787" lon="1.35549">
        <ele>123</ele>
        <time>2013-03-22T14:56:34Z</time>
      </trkpt>
      <trkpt lat="45.1677" lon="1.35543">
        <ele>123</ele>
        <time>2013-03-22T14:56:51Z</time>
      </trkpt>
      <trkpt lat="45.16751" lon="1.35544">
        <ele>123</ele>
        <time>2013-03-22T14:57:10Z</time>
      </trkpt>
      <trkpt lat="45.16734" lon="1.35559">
        <ele>122</ele>
        <time>2013-03-22T14:57:28Z</time>
      </trkpt>
      <trkpt lat="45.16726" lon="1.35577">
        <ele>119</ele>
        <time>2013-03-22T14:57:45Z</time>
      </trkpt>
      <trkpt lat="45.1671" lon="1.35592">
        <ele>124</ele>
        <time>2013-03-22T14:58:02Z</time>
      </trkpt>
      <trkpt lat="45.167" lon="1.356">
        <ele>125</ele>
        <time>2013-03-22T14:58:18Z</time>
      </trkpt>
      <trkpt lat="45.16687" lon="1.35612">
        <ele>132</ele>
        <time>2013-03-22T14:58:35Z</time>
      </trkpt>
      <trkpt lat="45.16671" lon="1.3562">
        <ele>141</ele>
        <time>2013-03-22T14:58:51Z</time>
      </trkpt>
      <trkpt lat="45.16672" lon="1.35618">
        <ele>144</ele>
        <time>2013-03-22T14:59:13Z</time>
      </trkpt>
      <trkpt lat="45.1667" lon="1.35621">
        <ele>157</ele>
        <time>2013-03-22T14:59:29Z</time>
      </trkpt>
      <trkpt lat="45.16649" lon="1.35624">
        <ele>157</ele>
        <time>2013-03-22T14:59:45Z</time>
      </trkpt>
      <trkpt lat="45.16632" lon="1.35626">
        <ele>146</ele>
        <time>2013-03-22T15:00:01Z</time>
      </trkpt>
      <trkpt lat="45.16616" lon="1.35632">
        <ele>133</ele>
        <time>2013-03-22T15:00:17Z</time>
      </trkpt>
      <trkpt lat="45.16597" lon="1.35639">
        <ele>131</ele>
        <time>2013-03-22T15:00:35Z</time>
      </trkpt>
      <trkpt lat="45.16579" lon="1.3565">
        <ele>130</ele>
        <time>2013-03-22T15:00:51Z</time>
      </trkpt>
      <trkpt lat="45.1656" lon="1.35659">
        <ele>129</ele>
        <time>2013-03-22T15:01:09Z</time>
      </trkpt>
      <trkpt lat="45.1654" lon="1.35666">
        <ele>129</ele>
        <time>2013-03-22T15:01:26Z</time>
      </trkpt>
      <trkpt lat="45.16521" lon="1.3567">
        <ele>129</ele>
        <time>2013-03-22T15:01:43Z</time>
      </trkpt>
      <trkpt lat="45.16499" lon="1.3567">
        <ele>125</ele>
        <time>2013-03-22T15:02:01Z</time>
      </trkpt>
      <trkpt lat="45.16477" lon="1.35674">
        <ele>122</ele>
        <time>2013-03-22T15:02:19Z</time>
      </trkpt>
      <trkpt lat="45.16455" lon="1.35679">
        <ele>121</ele>
        <time>2013-03-22T15:02:38Z</time>
      </trkpt>
      <trkpt lat="45.16432" lon="1.35686">
        <ele>121</ele>
        <time>2013-03-22T15:02:55Z</time>
      </trkpt>
      <trkpt lat="45.1641" lon="1.35692">
        <ele>122</ele>
        <time>2013-03-22T15:03:12Z</time>
      </trkpt>
      <trkpt lat="45.16388" lon="1.35698">
        <ele>124</ele>
        <time>2013-03-22T15:03:29Z</time>
      </trkpt>
      <trkpt lat="45.16367" lon="1.35702">
        <ele>126</ele>
        <time>2013-03-22T15:03:46Z</time>
      </trkpt>
      <trkpt lat="45.16364" lon="1.3568">
        <ele>126</ele>
        <time>2013-03-22T15:04:05Z</time>
      </trkpt>
      <trkpt lat="45.16367" lon="1.35658">
        <ele>126</ele>
        <time>2013-03-22T15:04:23Z</time>
      </trkpt>
      <trkpt lat="45.16369" lon="1.35633">
        <ele>126</ele>
        <time>2013-03-22T15:04:41Z</time>
      </trkpt>
      <trkpt lat="45.16372" lon="1.35615">
        <ele>128</ele>
        <time>2013-03-22T15:04:57Z</time>
      </trkpt>
      <trkpt lat="45.16376" lon="1.35595">
        <ele>130</ele>
        <time>2013-03-22T15:05:17Z</time>
      </trkpt>
      <trkpt lat="45.1638" lon="1.35578">
        <ele>133</ele>
        <time>2013-03-22T15:05:33Z</time>
      </trkpt>
      <trkpt lat="45.16386" lon="1.35562">
        <ele>135</ele>
        <time>2013-03-22T15:05:51Z</time>
      </trkpt>
      <trkpt lat="45.16394" lon="1.35547">
        <ele>137</ele>
        <time>2013-03-22T15:06:09Z</time>
      </trkpt>
      <trkpt lat="45.16404" lon="1.35532">
        <ele>140</ele>
        <time>2013-03-22T15:06:26Z</time>
      </trkpt>
      <trkpt lat="45.16417" lon="1.35527">
        <ele>142</ele>
        <time>2013-03-22T15:06:43Z</time>
      </trkpt>
      <trkpt lat="45.16431" lon="1.35522">
        <ele>143</ele>
        <time>2013-03-22T15:07:00Z</time>
      </trkpt>
      <trkpt lat="45.16444" lon="1.35516">
        <ele>144</ele>
        <time>2013-03-22T15:07:18Z</time>
      </trkpt>
      <trkpt lat="45.16454" lon="1.35504">
        <ele>149</ele>
        <time>2013-03-22T15:07:37Z</time>
      </trkpt>
      <trkpt lat="45.16458" lon="1.35487">
        <ele>150</ele>
        <time>2013-03-22T15:07:53Z</time>
      </trkpt>
      <trkpt lat="45.16452" lon="1.35468">
        <ele>151</ele>
        <time>2013-03-22T15:08:10Z</time>
      </trkpt>
      <trkpt lat="45.16446" lon="1.35449">
        <ele>153</ele>
        <time>2013-03-22T15:08:29Z</time>
      </trkpt>
      <trkpt lat="45.16441" lon="1.3543">
        <ele>155</ele>
        <time>2013-03-22T15:08:46Z</time>
      </trkpt>
      <trkpt lat="45.16436" lon="1.35408">
        <ele>156</ele>
        <time>2013-03-22T15:09:06Z</time>
      </trkpt>
      <trkpt lat="45.16432" lon="1.35389">
        <ele>157</ele>
        <time>2013-03-22T15:09:23Z</time>
      </trkpt>
      <trkpt lat="45.16429" lon="1.35369">
        <ele>158</ele>
        <time>2013-03-22T15:09:41Z</time>
      </trkpt>
      <trkpt lat="45.16429" lon="1.35371">
        <ele>159</ele>
        <time>2013-03-22T15:10:08Z</time>
      </trkpt>
      <trkpt lat="45.16428" lon="1.35353">
        <ele>161</ele>
        <time>2013-03-22T15:10:26Z</time>
      </trkpt>
      <trkpt lat="45.16425" lon="1.35328">
        <ele>161</ele>
        <time>2013-03-22T15:10:43Z</time>
      </trkpt>
      <trkpt lat="45.16422" lon="1.35307">
        <ele>161</ele>
        <time>2013-03-22T15:11:00Z</time>
      </trkpt>
      <trkpt lat="45.16419" lon="1.35284">
        <ele>163</ele>
        <time>2013-03-22T15:11:18Z</time>
      </trkpt>
      <trkpt lat="45.16416" lon="1.35263">
        <ele>166</ele>
        <time>2013-03-22T15:11:36Z</time>
      </trkpt>
      <trkpt lat="45.16413" lon="1.35243">
        <ele>167</ele>
        <time>2013-03-22T15:11:54Z</time>
      </trkpt>
      <trkpt lat="45.16406" lon="1.35225">
        <ele>169</ele>
        <time>2013-03-22T15:12:12Z</time>
      </trkpt>
      <trkpt lat="45.16396" lon="1.3521">
        <ele>170</ele>
        <time>2013-03-22T15:12:30Z</time>
      </trkpt>
      <trkpt lat="45.16387" lon="1.3519">
        <ele>173</ele>
        <time>2013-03-22T15:12:49Z</time>
      </trkpt>
      <trkpt lat="45.16383" lon="1.35167">
        <ele>175</ele>
        <time>2013-03-22T15:13:07Z</time>
      </trkpt>
      <trkpt lat="45.16379" lon="1.35141">
        <ele>176</ele>
        <time>2013-03-22T15:13:26Z</time>
      </trkpt>
      <trkpt lat="45.16373" lon="1.35117">
        <ele>177</ele>
        <time>2013-03-22T15:13:43Z</time>
      </trkpt>
      <trkpt lat="45.16365" lon="1.35095">
        <ele>178</ele>
        <time>2013-03-22T15:13:59Z</time>
      </trkpt>
      <trkpt lat="45.16356" lon="1.35071">
        <ele>181</ele>
        <time>2013-03-22T15:14:17Z</time>
      </trkpt>
      <trkpt lat="45.16355" lon="1.35067">
        <ele>181</ele>
        <time>2013-03-22T15:14:44Z</time>
      </trkpt>
      <trkpt lat="45.16354" lon="1.35067">
        <ele>181</ele>
        <time>2013-03-22T15:15:01Z</time>
      </trkpt>
      <trkpt lat="45.16347" lon="1.35044">
        <ele>181</ele>
        <time>2013-03-22T15:15:19Z</time>
      </trkpt>
      <trkpt lat="45.16338" lon="1.3502">
        <ele>181</ele>
        <time>2013-03-22T15:15:35Z</time>
      </trkpt>
      <trkpt lat="45.1633" lon="1.34998">
        <ele>181</ele>
        <time>2013-03-22T15:15:52Z</time>
      </trkpt>
      <trkpt lat="45.16323" lon="1.3498">
        <ele>184</ele>
        <time>2013-03-22T15:16:08Z</time>
      </trkpt>
      <trkpt lat="45.16322" lon="1.34972">
        <ele>186</ele>
        <time>2013-03-22T15:16:27Z</time>
      </trkpt>
      <trkpt lat="45.16319" lon="1.34953">
        <ele>187</ele>
        <time>2013-03-22T15:16:45Z</time>
      </trkpt>
      <trkpt lat="45.16319" lon="1.34932">
        <ele>187</ele>
        <time>2013-03-22T15:17:03Z</time>
      </trkpt>
      <trkpt lat="45.16318" lon="1.34909">
        <ele>187</ele>
        <time>2013-03-22T15:17:20Z</time>
      </trkpt>
      <trkpt lat="45.16316" lon="1.34887">
        <ele>187</ele>
        <time>2013-03-22T15:17:38Z</time>
      </trkpt>
      <trkpt lat="45.16311" lon="1.34867">
        <ele>187</ele>
        <time>2013-03-22T15:17:55Z</time>
      </trkpt>
      <trkpt lat="45.16313" lon="1.34844">
        <ele>188</ele>
        <time>2013-03-22T15:18:14Z</time>
      </trkpt>
      <trkpt lat="45.16319" lon="1.34825">
        <ele>188</ele>
        <time>2013-03-22T15:18:30Z</time>
      </trkpt>
      <trkpt lat="45.1632" lon="1.34806">
        <ele>190</ele>
        <time>2013-03-22T15:18:47Z</time>
      </trkpt>
      <trkpt lat="45.16318" lon="1.34787">
        <ele>193</ele>
        <time>2013-03-22T15:19:03Z</time>
      </trkpt>
      <trkpt lat="45.16312" lon="1.34767">
        <ele>194</ele>
        <time>2013-03-22T15:19:23Z</time>
      </trkpt>
      <trkpt lat="45.16308" lon="1.34752">
        <ele>196</ele>
        <time>2013-03-22T15:19:40Z</time>
      </trkpt>
      <trkpt lat="45.16305" lon="1.34737">
        <ele>196</ele>
        <time>2013-03-22T15:19:56Z</time>
      </trkpt>
      <trkpt lat="45.16302" lon="1.34721">
        <ele>196</ele>
        <time>2013-03-22T15:20:12Z</time>
      </trkpt>
      <trkpt lat="45.16298" lon="1.34701">
        <ele>198</ele>
        <time>2013-03-22T15:20:30Z</time>
      </trkpt>
      <trkpt lat="45.16289" lon="1.34681">
        <ele>202</ele>
        <time>2013-03-22T15:20:47Z</time>
      </trkpt>
      <trkpt lat="45.16284" lon="1.34663">
        <ele>206</ele>
        <time>2013-03-22T15:21:03Z</time>
      </trkpt>
      <trkpt lat="45.16275" lon="1.34641">
        <ele>208</ele>
        <time>2013-03-22T15:21:21Z</time>
      </trkpt>
      <trkpt lat="45.16262" lon="1.34625">
        <ele>210</ele>
        <time>2013-03-22T15:21:40Z</time>
      </trkpt>
      <trkpt lat="45.16248" lon="1.3461">
        <ele>211</ele>
        <time>2013-03-22T15:21:58Z</time>
      </trkpt>
      <trkpt lat="45.16233" lon="1.34601">
        <ele>213</ele>
        <time>2013-03-22T15:22:16Z</time>
      </trkpt>
      <trkpt lat="45.16224" lon="1.34578">
        <ele>215</ele>
        <time>2013-03-22T15:22:35Z</time>
      </trkpt>
      <trkpt lat="45.16218" lon="1.34557">
        <ele>217</ele>
        <time>2013-03-22T15:22:54Z</time>
      </trkpt>
      <trkpt lat="45.16212" lon="1.34539">
        <ele>219</ele>
        <time>2013-03-22T15:23:13Z</time>
      </trkpt>
      <trkpt lat="45.16208" lon="1.34519">
        <ele>219</ele>
        <time>2013-03-22T15:23:31Z</time>
      </trkpt>
      <trkpt lat="45.16207" lon="1.34499">
        <ele>220</ele>
        <time>2013-03-22T15:23:49Z</time>
      </trkpt>
      <trkpt lat="45.16208" lon="1.34476">
        <ele>222</ele>
        <time>2013-03-22T15:24:09Z</time>
      </trkpt>
      <trkpt lat="45.16211" lon="1.34456">
        <ele>225</ele>
        <time>2013-03-22T15:24:28Z</time>
      </trkpt>
      <trkpt lat="45.16211" lon="1.34432">
        <ele>227</ele>
        <time>2013-03-22T15:24:45Z</time>
      </trkpt>
      <trkpt lat="45.16212" lon="1.34412">
        <ele>227</ele>
        <time>2013-03-22T15:25:01Z</time>
      </trkpt>
      <trkpt lat="45.16215" lon="1.34391">
        <ele>229</ele>
        <time>2013-03-22T15:25:17Z</time>
      </trkpt>
      <trkpt lat="45.16216" lon="1.3437">
        <ele>231</ele>
        <time>2013-03-22T15:25:33Z</time>
      </trkpt>
      <trkpt lat="45.16213" lon="1.34345">
        <ele>232</ele>
        <time>2013-03-22T15:25:53Z</time>
      </trkpt>
      <trkpt lat="45.16206" lon="1.34324">
        <ele>234</ele>
        <time>2013-03-22T15:26:11Z</time>
      </trkpt>
      <trkpt lat="45.16199" lon="1.34303">
        <ele>236</ele>
        <time>2013-03-22T15:26:28Z</time>
      </trkpt>
      <trkpt lat="45.16198" lon="1.34296">
        <ele>236</ele>
        <time>2013-03-22T15:26:47Z</time>
      </trkpt>
      <trkpt lat="45.16198" lon="1.34294">
        <ele>236</ele>
        <time>2013-03-22T15:27:09Z</time>
      </trkpt>
      <trkpt lat="45.16208" lon="1.3429">
        <ele>236</ele>
        <time>2013-03-22T15:27:26Z</time>
      </trkpt>
      <trkpt lat="45.16223" lon="1.34294">
        <ele>236</ele>
        <time>2013-03-22T15:27:42Z</time>
      </trkpt>
      <trkpt lat="45.1624" lon="1.34301">
        <ele>235</ele>
        <time>2013-03-22T15:28:01Z</time>
      </trkpt>
      <trkpt lat="45.16261" lon="1.34301">
        <ele>231</ele>
        <time>2013-03-22T15:28:20Z</time>
      </trkpt>
      <trkpt lat="45.16277" lon="1.34302">
        <ele>229</ele>
        <time>2013-03-22T15:28:40Z</time>
      </trkpt>
      <trkpt lat="45.16293" lon="1.34307">
        <ele>228</ele>
        <time>2013-03-22T15:29:00Z</time>
      </trkpt>
      <trkpt lat="45.16305" lon="1.34308">
        <ele>223</ele>
        <time>2013-03-22T15:29:17Z</time>
      </trkpt>
      <trkpt lat="45.16315" lon="1.34284">
        <ele>218</ele>
        <time>2013-03-22T15:29:35Z</time>
      </trkpt>
      <trkpt lat="45.16319" lon="1.34262">
        <ele>217</ele>
        <time>2013-03-22T15:29:52Z</time>
      </trkpt>
      <trkpt lat="45.16325" lon="1.34235">
        <ele>212</ele>
        <time>2013-03-22T15:30:08Z</time>
      </trkpt>
      <trkpt lat="45.16328" lon="1.34212">
        <ele>208</ele>
        <time>2013-03-22T15:30:27Z</time>
      </trkpt>
      <trkpt lat="45.16331" lon="1.34188">
        <ele>207</ele>
        <time>2013-03-22T15:30:45Z</time>
      </trkpt>
      <trkpt lat="45.16331" lon="1.34168">
        <ele>207</ele>
        <time>2013-03-22T15:31:04Z</time>
      </trkpt>
      <trkpt lat="45.16334" lon="1.34145">
        <ele>208</ele>
        <time>2013-03-22T15:31:23Z</time>
      </trkpt>
      <trkpt lat="45.1634" lon="1.3413">
        <ele>219</ele>
        <time>2013-03-22T15:31:43Z</time>
      </trkpt>
      <trkpt lat="45.16357" lon="1.34124">
        <ele>219</ele>
        <time>2013-03-22T15:31:59Z</time>
      </trkpt>
      <trkpt lat="45.16368" lon="1.3412">
        <ele>221</ele>
        <time>2013-03-22T15:32:16Z</time>
      </trkpt>
      <trkpt lat="45.16383" lon="1.34111">
        <ele>226</ele>
        <time>2013-03-22T15:32:36Z</time>
      </trkpt>
      <trkpt lat="45.16395" lon="1.34101">
        <ele>227</ele>
        <time>2013-03-22T15:32:53Z</time>
      </trkpt>
      <trkpt lat="45.16403" lon="1.3409">
        <ele>229</ele>
        <time>2013-03-22T15:33:10Z</time>
      </trkpt>
      <trkpt lat="45.16411" lon="1.34075">
        <ele>230</ele>
        <time>2013-03-22T15:33:27Z</time>
      </trkpt>
      <trkpt lat="45.16416" lon="1.3406">
        <ele>231</ele>
        <time>2013-03-22T15:33:44Z</time>
      </trkpt>
      <trkpt lat="45.16428" lon="1.3404">
        <ele>231</ele>
        <time>2013-03-22T15:34:02Z</time>
      </trkpt>
      <trkpt lat="45.16438" lon="1.34034">
        <ele>231</ele>
        <time>2013-03-22T15:34:19Z</time>
      </trkpt>
      <trkpt lat="45.1645" lon="1.34053">
        <ele>231</ele>
        <time>2013-03-22T15:34:35Z</time>
      </trkpt>
      <trkpt lat="45.1646" lon="1.34074">
        <ele>235</ele>
        <time>2013-03-22T15:34:52Z</time>
      </trkpt>
      <trkpt lat="45.1646" lon="1.34086">
        <ele>235</ele>
        <time>2013-03-22T15:35:04Z</time>
      </trkpt>
    </trkseg>
  </trk>
</gpx>